Time;durP1;ratioP1;P1;durP2;ratioP2;P2;SDS_P1;SDS_P2;PMS_P1;PMS_P2;Temp;Humidity;BMP_temperature;BMP_pressure;BME280_temperature;BME280_humidity;BME280_pressure;Samples;Min_cycle;Max_cycle;Signal;HPM_P1;HPM_P2
2021/08/22 00:00:13;;;;;;;16.43;10.70;;;;;;;19.15;100.00;95926.59;1044493;28;20032;-67
2021/08/22 00:00:44;;;;;;;14.17;10.33;;;;;;;19.13;100.00;95915.28;1044532;28;20013;-67
2021/08/22 00:01:14;;;;;;;14.87;11.27;;;;;;;19.13;100.00;95924.19;1044737;28;20033;-67
2021/08/22 00:01:45;;;;;;;14.40;9.83;;;;;;;19.16;100.00;95922.78;1044809;28;20047;-67
2021/08/22 00:02:15;;;;;;;13.97;10.43;;;;;;;19.15;100.00;95927.41;1044783;28;20020;-67
2021/08/22 00:02:45;;;;;;;17.43;9.67;;;;;;;19.14;100.00;95925.00;1044884;28;20029;-68
2021/08/22 00:03:16;;;;;;;13.17;10.50;;;;;;;19.15;100.00;95915.78;1044200;28;20016;-67
2021/08/22 00:03:46;;;;;;;12.87;10.00;;;;;;;19.12;100.00;95927.25;1040357;28;20368;-67
2021/08/22 00:04:17;;;;;;;12.70;9.90;;;;;;;19.13;100.00;95923.41;1040120;28;20053;-67
2021/08/22 00:04:47;;;;;;;14.40;10.17;;;;;;;19.12;100.00;95928.03;1040435;28;20410;-67
2021/08/22 00:05:18;;;;;;;14.00;9.93;;;;;;;19.13;100.00;95931.53;1040260;28;20033;-67
2021/08/22 00:05:48;;;;;;;19.63;10.37;;;;;;;19.11;100.00;95934.59;1036189;28;20331;-67
2021/08/22 00:06:18;;;;;;;17.73;10.13;;;;;;;19.14;100.00;95930.41;1036288;28;20018;-67
2021/08/22 00:06:49;;;;;;;16.30;9.80;;;;;;;19.13;100.00;95937.75;1032448;28;20050;-68
2021/08/22 00:07:19;;;;;;;15.10;10.33;;;;;;;19.14;100.00;95928.53;1036277;28;20467;-68
2021/08/22 00:07:50;;;;;;;19.20;9.87;;;;;;;19.13;100.00;95926.91;1040352;28;20017;-68
2021/08/22 00:08:20;;;;;;;14.73;10.07;;;;;;;19.06;100.00;95932.06;1036323;28;20061;-68
2021/08/22 00:08:51;;;;;;;15.23;10.10;;;;;;;19.08;100.00;95927.09;1040352;28;20028;-68
2021/08/22 00:09:21;;;;;;;14.17;9.90;;;;;;;19.08;100.00;95929.81;1036052;28;20455;-68
2021/08/22 00:09:52;;;;;;;13.57;10.13;;;;;;;19.09;100.00;95928.72;1036268;28;20022;-68
2021/08/22 00:10:24;;;;;;;13.43;10.07;;;;;;;19.09;100.00;95930.59;1032154;28;20018;-68
2021/08/22 00:10:54;;;;;;;14.82;10.20;;;;;;;19.09;100.00;95930.59;1028088;28;20126;-68
2021/08/22 00:11:24;;;;;;;13.07;9.63;;;;;;;19.09;100.00;95933.31;1028059;28;20121;-68
2021/08/22 00:11:55;;;;;;;13.33;9.93;;;;;;;19.10;100.00;95937.63;1028925;28;20082;-69
2021/08/22 00:12:25;;;;;;;14.87;10.33;;;;;;;19.05;100.00;95935.88;1040282;28;20100;-68
2021/08/22 00:12:56;;;;;;;15.13;9.97;;;;;;;19.05;100.00;95930.47;1040283;28;20075;-68
2021/08/22 00:13:26;;;;;;;15.00;10.27;;;;;;;19.03;100.00;95937.31;1040244;28;20059;-69
2021/08/22 00:13:57;;;;;;;15.37;9.87;;;;;;;19.04;100.00;95937.00;1040302;28;20079;-68
2021/08/22 00:14:27;;;;;;;14.17;9.70;;;;;;;19.03;100.00;95929.97;1040159;28;20111;-68
2021/08/22 00:14:58;;;;;;;16.80;10.60;;;;;;;19.03;100.00;95929.97;1040294;28;20026;-68
2021/08/22 00:15:28;;;;;;;16.73;10.30;;;;;;;19.02;100.00;95938.44;1040500;28;20021;-69
2021/08/22 00:15:59;;;;;;;15.33;10.10;;;;;;;19.03;100.00;95937.31;1040202;28;20048;-68
2021/08/22 00:16:30;;;;;;;12.00;10.15;;;;;;;19.00;100.00;95936.06;1036261;28;20025;-68
2021/08/22 00:17:00;;;;;;;12.37;9.40;;;;;;;19.00;100.00;95933.34;1036215;28;20529;-67
2021/08/22 00:17:30;;;;;;;18.83;10.70;;;;;;;19.00;100.00;95937.97;1040221;28;20406;-67
2021/08/22 00:18:01;;;;;;;16.27;10.00;;;;;;;19.00;100.00;95938.78;1040382;28;20140;-67
2021/08/22 00:18:31;;;;;;;14.73;10.00;;;;;;;19.00;100.00;95938.78;1040166;28;20025;-67
2021/08/22 00:19:02;;;;;;;14.67;10.00;;;;;;;19.01;100.00;95937.66;1036118;28;20018;-68
2021/08/22 00:19:32;;;;;;;14.03;9.50;;;;;;;19.00;100.00;95938.78;1032201;28;20101;-67
2021/08/22 00:20:03;;;;;;;13.90;9.53;;;;;;;18.98;100.00;95949.13;1036258;28;20038;-67
2021/08/22 00:20:33;;;;;;;13.45;9.48;;;;;;;18.97;100.00;95942.13;1036309;28;20108;-68
2021/08/22 00:21:04;;;;;;;11.37;8.97;;;;;;;18.98;100.00;95937.50;1040338;28;20029;-67
2021/08/22 00:21:34;;;;;;;14.13;9.63;;;;;;;18.94;100.00;95942.78;1036199;28;20147;-67
2021/08/22 00:22:05;;;;;;;15.40;9.67;;;;;;;18.93;100.00;95933.84;1036254;28;20033;-67
2021/08/22 00:22:35;;;;;;;13.83;9.63;;;;;;;18.94;100.00;95946.28;1036168;28;20455;-68
2021/08/22 00:23:06;;;;;;;14.67;9.80;;;;;;;18.94;100.00;95938.16;1036135;28;20029;-68
2021/08/22 00:23:36;;;;;;;12.50;9.57;;;;;;;18.96;100.00;95941.31;1036011;28;20022;-67
2021/08/22 00:24:06;;;;;;;12.47;9.73;;;;;;;18.96;100.00;95938.63;1032191;28;20029;-68
2021/08/22 00:24:37;;;;;;;14.63;9.60;;;;;;;18.96;100.00;95938.63;1032162;28;20031;-67
2021/08/22 00:25:07;;;;;;;12.97;9.67;;;;;;;18.98;100.00;95935.56;1036178;28;20029;-67
2021/08/22 00:25:38;;;;;;;13.23;9.67;;;;;;;18.99;100.00;95939.91;1036164;28;20033;-67
2021/08/22 00:26:08;;;;;;;13.07;9.40;;;;;;;19.01;100.00;95939.56;1036246;28;20022;-67
2021/08/22 00:26:39;;;;;;;12.67;9.70;;;;;;;19.00;100.00;95930.66;1040177;28;20030;-69
2021/08/22 00:27:09;;;;;;;15.87;9.50;;;;;;;19.00;100.00;95936.06;1036323;28;20018;-68
2021/08/22 00:27:40;;;;;;;14.27;8.97;;;;;;;18.99;100.00;95934.47;1036153;28;20026;-68
2021/08/22 00:28:10;;;;;;;11.90;9.50;;;;;;;18.98;100.00;95938.28;1036152;28;20589;-68
2021/08/22 00:28:40;;;;;;;14.70;9.70;;;;;;;18.98;100.00;95935.56;1040397;28;20030;-68
2021/08/22 00:29:11;;;;;;;12.40;9.30;;;;;;;19.00;100.00;95940.69;1044467;28;20148;-68
2021/08/22 00:29:41;;;;;;;11.80;9.40;;;;;;;18.97;100.00;95942.13;1040565;28;20025;-68
2021/08/22 00:30:12;;;;;;;13.00;9.10;;;;;;;18.99;100.00;95939.91;1040300;28;20033;-68
2021/08/22 00:30:42;;;;;;;14.60;9.40;;;;;;;18.99;100.00;95934.47;1040274;28;20495;-68
2021/08/22 00:31:13;;;;;;;12.63;9.70;;;;;;;19.01;100.00;95934.94;1036248;28;20399;-68
2021/08/22 00:31:43;;;;;;;13.13;9.30;;;;;;;19.03;100.00;95931.91;1036296;28;20444;-68
2021/08/22 00:32:14;;;;;;;12.63;9.97;;;;;;;18.96;100.00;95938.63;1040315;28;20490;-68
2021/08/22 00:32:44;;;;;;;14.13;9.20;;;;;;;18.97;100.00;95939.41;1036141;28;20022;-68
2021/08/22 00:33:14;;;;;;;12.27;9.57;;;;;;;18.95;100.00;95934.34;1040191;28;20026;-68
2021/08/22 00:33:45;;;;;;;12.80;9.80;;;;;;;18.96;100.00;95927.00;1040226;28;20463;-68
2021/08/22 00:34:15;;;;;;;12.43;9.50;;;;;;;18.95;100.00;95931.63;1044458;28;20033;-68
2021/08/22 00:34:46;;;;;;;15.73;10.53;;;;;;;18.97;100.00;95934.00;1048494;28;20020;-68
2021/08/22 00:35:17;;;;;;;12.60;9.17;;;;;;;18.97;100.00;95939.41;1048582;28;20098;-68
2021/08/22 00:35:48;;;;;;;14.13;9.13;;;;;;;18.95;100.00;95934.34;1048311;28;20032;-68
2021/08/22 00:36:18;;;;;;;11.40;8.90;;;;;;;18.95;100.00;95928.13;1040505;28;20052;-68
2021/08/22 00:36:49;;;;;;;14.53;9.50;;;;;;;18.95;100.00;95928.13;1040556;28;20511;-68
2021/08/22 00:37:20;;;;;;;12.70;9.33;;;;;;;18.95;100.00;95931.63;1040172;28;20045;-68
2021/08/22 00:37:51;;;;;;;17.90;9.60;;;;;;;18.94;100.00;95937.38;1036162;28;20517;-69
2021/08/22 00:38:21;;;;;;;15.43;9.60;;;;;;;18.87;100.00;95928.94;1037231;28;20029;-68
2021/08/22 00:38:51;;;;;;;17.97;10.27;;;;;;;18.86;100.00;95936.28;1040435;28;20033;-68
2021/08/22 00:39:23;;;;;;;17.47;10.33;;;;;;;18.86;100.00;95927.34;1040207;28;20025;-68
2021/08/22 00:39:57;;;;;;;15.05;9.90;;;;;;;18.83;100.00;95926.06;1040072;28;20010;-68
2021/08/22 00:40:27;;;;;;;14.68;9.77;;;;;;;18.83;100.00;95936.91;1043967;28;20389;-68
2021/08/22 00:40:58;;;;;;;16.17;10.10;;;;;;;18.83;100.00;95928.78;1043663;28;20043;-68
2021/08/22 00:41:29;;;;;;;13.00;9.70;;;;;;;18.82;100.00;95927.19;1040547;28;20029;-68
2021/08/22 00:42:00;;;;;;;15.05;9.55;;;;;;;18.83;100.00;95926.06;1040618;28;20048;-68
2021/08/22 00:42:31;;;;;;;11.23;9.03;;;;;;;18.84;100.00;95933.09;1048440;28;20462;-68
2021/08/22 00:43:07;;;;;;;18.75;10.13;;;;;;;18.83;100.00;95926.06;1048454;28;20059;-68
2021/08/22 00:43:37;;;;;;;16.23;10.02;;;;;;;18.83;100.00;95925.28;1048342;28;20028;-68
2021/08/22 00:44:08;;;;;;;13.63;9.23;;;;;;;18.82;100.00;95924.50;1046473;28;20012;-69
2021/08/22 00:44:38;;;;;;;12.87;9.67;;;;;;;18.81;100.00;95924.81;1040156;28;20060;-69
2021/08/22 00:45:09;;;;;;;15.23;9.60;;;;;;;18.80;100.00;95928.66;1040537;28;20029;-69
2021/08/22 00:45:40;;;;;;;14.17;10.00;;;;;;;18.78;100.00;95928.16;1044288;28;20083;-68
2021/08/22 00:46:10;;;;;;;17.23;10.30;;;;;;;18.79;100.00;95927.06;1036022;28;20108;-68
2021/08/22 00:46:40;;;;;;;12.83;9.27;;;;;;;18.78;100.00;95926.25;1027978;28;20034;-68
2021/08/22 00:47:11;;;;;;;12.27;9.23;;;;;;;18.78;100.00;95933.59;1028148;28;20480;-68
2021/08/22 00:47:45;;;;;;;13.17;9.40;;;;;;;18.77;100.00;95924.66;1028014;28;20035;-68
2021/08/22 00:48:15;;;;;;;12.48;10.23;;;;;;;18.78;100.00;95925.47;1029695;28;20023;-69
2021/08/22 00:48:46;;;;;;;15.87;9.57;;;;;;;18.75;100.00;95924.22;1040697;28;20475;-68
2021/08/22 00:49:20;;;;;;;13.03;8.90;;;;;;;18.76;100.00;95930.41;1036643;28;20053;-68
2021/08/22 00:49:50;;;;;;;13.90;9.55;;;;;;;18.76;100.00;95931.22;1039594;28;20017;-68
2021/08/22 00:50:21;;;;;;;16.20;10.43;;;;;;;18.76;100.00;95933.13;1036134;28;20026;-68
2021/08/22 00:50:52;;;;;;;16.70;10.23;;;;;;;18.70;100.00;95927.09;1036762;28;20025;-68
2021/08/22 00:51:23;;;;;;;12.98;9.68;;;;;;;18.74;100.00;95936.16;1040431;28;20025;-68
2021/08/22 00:51:53;;;;;;;13.73;9.73;;;;;;;18.75;100.00;95935.03;1040499;28;20033;-68
2021/08/22 00:52:24;;;;;;;9.87;8.60;;;;;;;18.75;100.00;95936.94;1040542;28;20025;-69
2021/08/22 00:52:55;;;;;;;15.40;9.95;;;;;;;18.77;100.00;95938.19;1036130;28;20467;-68
2021/08/22 00:53:25;;;;;;;13.97;10.10;;;;;;;18.73;100.00;95931.03;1036041;28;20018;-68
2021/08/22 00:53:56;;;;;;;12.70;9.43;;;;;;;18.77;100.00;95940.91;1038494;28;20025;-68
2021/08/22 00:54:26;;;;;;;11.93;9.10;;;;;;;18.75;100.00;95936.94;1040436;28;20026;-68
2021/08/22 00:54:56;;;;;;;12.70;9.33;;;;;;;18.73;100.00;95945.38;1044250;28;20080;-68
2021/08/22 00:55:27;;;;;;;13.03;9.13;;;;;;;18.75;100.00;95940.44;1040158;28;20029;-68
2021/08/22 00:55:57;;;;;;;12.03;9.37;;;;;;;18.75;100.00;95940.44;1040132;28;20037;-68
2021/08/22 00:56:28;;;;;;;12.90;9.53;;;;;;;18.75;100.00;95939.66;1036189;28;20033;-68
2021/08/22 00:56:58;;;;;;;12.90;9.47;;;;;;;18.75;100.00;95939.66;1031820;28;20034;-67
2021/08/22 00:57:29;;;;;;;12.23;9.40;;;;;;;18.75;100.00;95943.16;1035805;28;20030;-67
2021/08/22 00:57:59;;;;;;;13.97;10.07;;;;;;;18.73;100.00;95948.09;1036172;28;20088;-68
2021/08/22 00:58:31;;;;;;;12.13;9.40;;;;;;;18.75;100.00;95943.16;1036216;28;20395;-67
2021/08/22 00:59:03;;;;;;;13.05;9.70;;;;;;;18.76;100.00;95943.94;1040475;28;20048;-67
2021/08/22 00:59:36;;;;;;;15.50;9.70;;;;;;;18.77;100.00;95945.53;1040137;28;20033;-68
2021/08/22 01:00:08;;;;;;;13.50;9.57;;;;;;;18.76;100.00;95950.16;1040127;28;20025;-67
2021/08/22 01:00:40;;;;;;;12.05;9.25;;;;;;;18.77;100.00;95943.63;1040156;28;20132;-67
2021/08/22 01:01:24;;;;;;;17.10;9.63;;;;;;;18.70;100.00;95948.75;1036108;28;20487;-67
2021/08/22 01:01:55;;;;;;;15.90;9.77;;;;;;;18.70;100.00;95944.13;1038561;28;20483;-67
2021/08/22 01:02:28;;;;;;;14.15;9.27;;;;;;;18.73;100.00;95941.88;1035965;28;20022;-67
2021/08/22 01:03:05;;;;;;;20.58;9.95;;;;;;;18.72;100.00;95943.00;1036161;28;20092;-68
2021/08/22 01:03:40;;;;;;;16.13;9.48;;;;;;;18.72;100.00;95937.59;1031969;28;20037;-67
2021/08/22 01:04:15;;;;;;;13.90;9.40;;;;;;;18.72;100.00;95948.41;1038040;28;20108;-67
2021/08/22 01:04:55;;;;;;;11.80;9.52;;;;;;;18.72;100.00;95946.50;1042446;28;20029;-67
2021/08/22 01:05:39;;;;;;;14.35;9.88;;;;;;;18.73;100.00;95941.88;1038642;28;20026;-68
2021/08/22 01:06:45;;;;;;;12.27;9.10;;;;;;;18.68;100.00;95943.66;1036187;28;20068;-68
2021/08/22 01:07:23;;;;;;;12.77;9.13;;;;;;;18.69;100.00;95941.75;1035174;28;20495;-68
2021/08/22 01:08:05;;;;;;;12.88;9.35;;;;;;;18.70;100.00;95951.44;1027792;28;20015;-68
2021/08/22 01:08:36;;;;;;;13.82;9.27;;;;;;;18.72;100.00;95946.50;1031924;28;20022;-68
2021/08/22 01:09:09;;;;;;;11.93;9.10;;;;;;;18.73;100.00;95948.09;1030730;28;20061;-68
2021/08/22 01:09:43;;;;;;;13.10;9.35;;;;;;;18.75;100.00;95945.06;1034456;28;20270;-68
2021/08/22 01:10:15;;;;;;;13.68;9.30;;;;;;;18.76;100.00;95942.03;1031020;28;20030;-68
2021/08/22 01:10:46;;;;;;;11.98;9.43;;;;;;;18.76;100.00;95946.66;1033034;28;20023;-68
2021/08/22 01:11:17;;;;;;;13.00;9.90;;;;;;;18.75;100.00;95945.88;1036793;28;20120;-68
2021/08/22 01:11:48;;;;;;;14.95;10.13;;;;;;;18.75;100.00;95945.06;1037317;28;20360;-68
2021/08/22 01:12:24;;;;;;;12.77;9.80;;;;;;;18.74;100.00;95938.88;1043860;28;20024;-68
2021/08/22 01:13:08;;;;;;;12.27;9.05;;;;;;;18.70;100.00;95940.63;1040105;28;20018;-68
2021/08/22 01:13:41;;;;;;;12.90;9.35;;;;;;;18.72;100.00;95943.00;1038652;28;20040;-68
2021/08/22 01:14:13;;;;;;;12.55;9.40;;;;;;;18.72;100.00;95940.28;1040071;28;20048;-68
2021/08/22 01:14:48;;;;;;;14.85;9.38;;;;;;;18.73;100.00;95941.88;1036020;28;20108;-68
2021/08/22 01:15:18;;;;;;;15.80;9.57;;;;;;;18.73;100.00;95941.88;1037328;28;20061;-68
2021/08/22 01:15:54;;;;;;;11.23;9.00;;;;;;;18.75;100.00;95948.56;1040176;28;20077;-68
2021/08/22 01:16:26;;;;;;;13.27;9.70;;;;;;;18.72;100.00;95951.91;1041466;28;20025;-68
2021/08/22 01:16:57;;;;;;;17.27;8.93;;;;;;;18.72;100.00;95941.09;1040129;28;20025;-68
2021/08/22 01:17:28;;;;;;;12.83;9.07;;;;;;;18.73;100.00;95947.28;1035881;28;20049;-68
2021/08/22 01:17:59;;;;;;;12.00;8.73;;;;;;;18.74;100.00;95946.19;1035548;28;20112;-67
2021/08/22 01:18:29;;;;;;;21.63;10.17;;;;;;;18.75;100.00;95953.97;1031989;28;20033;-67
2021/08/22 01:19:00;;;;;;;11.80;9.07;;;;;;;18.76;100.00;95952.88;1036545;28;20123;-67
2021/08/22 01:19:33;;;;;;;11.40;9.17;;;;;;;18.74;100.00;95949.69;1040187;28;20413;-67
2021/08/22 01:20:15;;;;;;;11.50;8.95;;;;;;;18.70;100.00;95952.25;1044169;28;20029;-67
2021/08/22 01:21:04;;;;;;;15.70;9.25;;;;;;;18.68;100.00;95956.38;1042110;28;20044;-67
2021/08/22 01:21:34;;;;;;;13.25;8.70;;;;;;;18.72;100.00;95954.63;1043881;28;20017;-68
2021/08/22 01:22:05;;;;;;;12.83;9.20;;;;;;;18.72;100.00;95953.81;1040002;28;20030;-68
2021/08/22 01:22:37;;;;;;;14.93;9.50;;;;;;;18.73;100.00;95953.50;1027753;28;20015;-67
2021/08/22 01:23:08;;;;;;;13.13;8.82;;;;;;;18.76;100.00;95971.03;1024376;28;20445;-68
2021/08/22 01:23:45;;;;;;;11.57;9.07;;;;;;;18.72;100.00;95962.75;1023904;29;20019;-67
2021/08/22 01:24:18;;;;;;;13.38;9.57;;;;;;;18.75;100.00;95962.09;1025017;28;20027;-68
2021/08/22 01:24:48;;;;;;;13.48;9.48;;;;;;;18.75;100.00;95964.03;1025134;28;20042;-67
2021/08/22 01:25:19;;;;;;;11.80;9.00;;;;;;;18.76;100.00;95963.69;1026520;28;20019;-68
2021/08/22 01:25:49;;;;;;;14.80;10.43;;;;;;;18.76;100.00;95971.81;1024831;28;20441;-67
2021/08/22 01:26:24;;;;;;;11.97;9.30;;;;;;;18.77;100.00;95975.31;1027941;28;20018;-67
2021/08/22 01:26:54;;;;;;;13.32;9.35;;;;;;;18.74;100.00;95975.97;1032524;28;20480;-68
2021/08/22 01:27:25;;;;;;;12.47;8.50;;;;;;;18.71;100.00;95971.97;1033054;28;20014;-68
2021/08/22 01:27:55;;;;;;;15.80;10.00;;;;;;;18.70;100.00;95979.31;1040627;28;20021;-68
2021/08/22 01:28:26;;;;;;;13.77;9.20;;;;;;;18.73;100.00;95977.06;1039976;28;20474;-68
2021/08/22 01:28:58;;;;;;;14.43;8.77;;;;;;;18.70;100.00;95975.81;1035916;28;20100;-68
2021/08/22 01:29:37;;;;;;;11.07;8.68;;;;;;;18.72;100.00;95972.78;1035847;28;20018;-68
2021/08/22 01:30:15;;;;;;;11.35;8.65;;;;;;;18.69;100.00;95988.56;1033425;28;20488;-68
2021/08/22 01:30:46;;;;;;;12.25;8.80;;;;;;;18.66;100.00;95975.63;1030244;28;20496;-68
2021/08/22 01:31:22;;;;;;;14.77;8.60;;;;;;;18.67;100.00;95981.81;1034110;28;20057;-68
2021/08/22 01:31:53;;;;;;;12.00;8.82;;;;;;;18.71;100.00;95980.09;1034072;28;20034;-68
2021/08/22 01:32:35;;;;;;;11.75;9.05;;;;;;;18.70;100.00;95976.59;1033873;28;20030;-68
2021/08/22 01:33:09;;;;;;;12.38;8.73;;;;;;;18.74;100.00;95984.09;1035828;28;20049;-68
2021/08/22 01:33:40;;;;;;;11.15;8.40;;;;;;;18.73;100.00;95983.28;1031732;28;20089;-68
2021/08/22 01:34:10;;;;;;;11.40;8.30;;;;;;;18.73;100.00;95980.56;1033892;28;20100;-68
2021/08/22 01:34:41;;;;;;;13.13;8.67;;;;;;;18.75;100.00;95977.56;1031594;28;20545;-68
2021/08/22 01:35:13;;;;;;;11.13;7.93;;;;;;;18.75;100.00;95982.97;1028251;28;20046;-68
2021/08/22 01:35:44;;;;;;;11.32;8.20;;;;;;;18.74;100.00;95974.06;1027627;28;20114;-69
2021/08/22 01:36:14;;;;;;;11.05;8.60;;;;;;;18.75;100.00;95978.34;1028181;28;20026;-68
2021/08/22 01:36:45;;;;;;;12.93;8.20;;;;;;;18.76;100.00;95976.44;1032026;28;20030;-68
2021/08/22 01:37:16;;;;;;;12.43;8.80;;;;;;;18.79;100.00;95979.31;1032263;28;20141;-68
2021/08/22 01:37:47;;;;;;;12.65;7.95;;;;;;;18.83;100.00;95984.84;1035796;28;20034;-68
2021/08/22 01:38:18;;;;;;;11.25;7.97;;;;;;;18.84;100.00;95989.97;1031808;28;20371;-68
2021/08/22 01:38:49;;;;;;;11.50;8.70;;;;;;;18.83;100.00;95990.25;1032030;28;20085;-68
2021/08/22 01:39:19;;;;;;;12.33;8.67;;;;;;;18.83;100.00;95993.75;1036052;28;20014;-69
2021/08/22 01:39:49;;;;;;;10.97;8.40;;;;;;;18.85;100.00;95990.75;1035946;28;20025;-69
2021/08/22 01:40:21;;;;;;;12.20;8.70;;;;;;;18.79;100.00;95992.84;1031848;28;20022;-69
2021/08/22 01:40:51;;;;;;;10.80;8.32;;;;;;;18.81;100.00;95998.72;1027701;28;20031;-67
2021/08/22 01:41:22;;;;;;;11.63;8.83;;;;;;;18.81;100.00;95993.28;1027940;28;20056;-68
2021/08/22 01:41:53;;;;;;;13.25;8.68;;;;;;;18.81;100.00;95997.91;1032357;28;20053;-68
2021/08/22 01:42:23;;;;;;;14.57;8.83;;;;;;;18.79;100.00;95992.03;1036042;28;20026;-68
2021/08/22 01:42:54;;;;;;;14.07;7.67;;;;;;;18.79;100.00;96000.16;1035737;28;20034;-68
2021/08/22 01:43:24;;;;;;;13.63;7.70;;;;;;;18.81;100.00;95995.22;1035753;28;20049;-68
2021/08/22 01:43:55;;;;;;;13.00;8.67;;;;;;;18.83;100.00;95995.69;1031815;28;20344;-68
2021/08/22 01:44:25;;;;;;;13.07;8.50;;;;;;;18.80;100.00;95993.63;1035887;28;20457;-68
2021/08/22 01:44:55;;;;;;;11.20;8.03;;;;;;;18.79;100.00;95992.84;1031773;28;20536;-68
2021/08/22 01:45:26;;;;;;;12.37;7.67;;;;;;;18.80;100.00;95996.34;1031847;28;20495;-68
2021/08/22 01:45:57;;;;;;;12.87;8.53;;;;;;;18.77;100.00;95991.56;1027917;28;20034;-68
2021/08/22 01:46:39;;;;;;;11.27;8.10;;;;;;;18.76;100.00;95993.47;1033912;28;20030;-68
2021/08/22 01:47:09;;;;;;;11.32;8.25;;;;;;;18.75;100.00;95988.38;1039234;28;20037;-68
2021/08/22 01:47:40;;;;;;;11.47;8.00;;;;;;;18.72;100.00;95987.09;1041582;28;20021;-68
2021/08/22 01:48:13;;;;;;;10.60;8.37;;;;;;;18.66;100.00;95988.38;1035910;28;20116;-70
2021/08/22 01:48:44;;;;;;;14.85;8.90;;;;;;;18.60;100.00;95990.44;1027765;28;20411;-69
2021/08/22 01:49:14;;;;;;;12.23;8.27;;;;;;;18.63;100.00;95984.41;1031945;28;20022;-70
2021/08/22 01:49:45;;;;;;;10.63;8.27;;;;;;;18.63;100.00;95989.81;1031980;28;20034;-68
2021/08/22 01:50:16;;;;;;;12.00;7.63;;;;;;;18.67;100.00;95989.94;1031836;28;20050;-66
2021/08/22 01:50:46;;;;;;;12.10;8.45;;;;;;;18.65;100.00;95992.19;1035636;28;20026;-68
2021/08/22 01:51:17;;;;;;;13.07;8.13;;;;;;;18.64;100.00;95990.59;1032084;28;20019;-67
2021/08/22 01:51:47;;;;;;;13.63;8.53;;;;;;;18.62;100.00;95982.78;1036107;28;20471;-67
2021/08/22 01:52:18;;;;;;;13.27;8.70;;;;;;;18.62;100.00;95982.78;1036060;28;20017;-68
2021/08/22 01:52:50;;;;;;;11.90;8.20;;;;;;;18.61;100.00;95985.81;1035855;28;20021;-68
2021/08/22 01:53:20;;;;;;;11.77;7.47;;;;;;;18.61;100.00;95989.31;1036119;28;20040;-68
2021/08/22 01:53:51;;;;;;;13.43;8.27;;;;;;;18.62;100.00;95988.19;1039939;28;20521;-68
2021/08/22 01:54:21;;;;;;;11.80;7.87;;;;;;;18.58;100.00;95981.88;1036152;28;20041;-68
2021/08/22 01:54:51;;;;;;;13.17;8.17;;;;;;;18.59;100.00;95988.06;1035853;28;20030;-68
2021/08/22 01:55:22;;;;;;;12.20;7.57;;;;;;;18.58;100.00;95984.56;1027730;28;20023;-68
2021/08/22 01:55:53;;;;;;;12.20;7.77;;;;;;;18.56;100.00;95986.00;1031702;28;20121;-68
2021/08/22 01:56:23;;;;;;;14.48;8.25;;;;;;;18.56;100.00;95991.41;1032111;28;20050;-68
2021/08/22 01:56:54;;;;;;;15.27;8.30;;;;;;;18.55;100.00;95985.19;1035847;28;20089;-68
2021/08/22 01:57:24;;;;;;;11.17;7.70;;;;;;;18.55;100.00;95984.41;1036183;28;20026;-68
2021/08/22 01:57:55;;;;;;;10.33;7.73;;;;;;;18.59;100.00;95986.16;1044059;28;20328;-68
2021/08/22 01:58:25;;;;;;;11.57;7.97;;;;;;;18.59;100.00;95977.25;1044067;28;20490;-67
2021/08/22 01:58:56;;;;;;;11.53;8.20;;;;;;;18.59;100.00;95985.38;1044062;28;20096;-67
2021/08/22 01:59:26;;;;;;;11.43;8.07;;;;;;;18.56;100.00;95975.97;1043996;28;20056;-68
2021/08/22 01:59:57;;;;;;;10.63;8.53;;;;;;;18.61;100.00;95983.13;1044001;28;20036;-68
2021/08/22 02:00:27;;;;;;;11.00;8.20;;;;;;;18.62;100.00;95988.19;1044056;28;20028;-67
2021/08/22 02:00:58;;;;;;;10.90;7.97;;;;;;;18.64;100.00;95982.50;1044307;28;20028;-67
2021/08/22 02:01:28;;;;;;;12.97;8.67;;;;;;;18.67;100.00;95977.22;1043668;28;20059;-68
2021/08/22 02:01:59;;;;;;;11.23;8.57;;;;;;;18.68;100.00;95983.44;1039819;28;20495;-68
2021/08/22 02:02:29;;;;;;;15.63;8.40;;;;;;;18.67;100.00;95985.31;1039913;28;20067;-68
2021/08/22 02:03:16;;;;;;;11.07;8.10;;;;;;;18.67;100.00;95996.16;1035957;28;20559;-68
2021/08/22 02:04:10;;;;;;;10.93;8.20;;;;;;;18.66;100.00;95989.16;1033982;28;20027;-68
2021/08/22 02:04:46;;;;;;;13.95;8.85;;;;;;;18.64;100.00;95983.28;1028725;28;20039;-68
2021/08/22 02:05:17;;;;;;;11.02;8.25;;;;;;;18.65;100.00;95987.56;1024494;28;20429;-68
2021/08/22 02:05:49;;;;;;;11.23;8.07;;;;;;;18.69;100.00;95987.75;1030851;28;20031;-68
2021/08/22 02:06:49;;;;;;;14.07;8.45;;;;;;;18.65;100.00;95982.16;1027768;28;20070;-68
2021/08/22 02:07:20;;;;;;;14.88;9.07;;;;;;;18.65;100.00;95979.44;1031425;28;20440;-68
2021/08/22 02:07:51;;;;;;;12.82;8.25;;;;;;;18.67;100.00;95982.63;1032052;28;20046;-68
2021/08/22 02:08:22;;;;;;;11.90;8.20;;;;;;;18.69;100.00;95979.66;1039885;28;20053;-68
2021/08/22 02:08:56;;;;;;;10.57;8.20;;;;;;;18.66;100.00;95978.31;1035698;28;20594;-68
2021/08/22 02:09:57;;;;;;;13.45;7.88;;;;;;;18.69;100.00;95977.72;1031783;28;20773;-68
2021/08/22 02:10:30;;;;;;;13.20;8.88;;;;;;;18.64;100.00;95975.16;1027638;28;20071;-68
2021/08/22 02:11:15;;;;;;;13.73;8.25;;;;;;;18.63;100.00;95976.28;1032999;28;20023;-68
2021/08/22 02:12:00;;;;;;;15.35;9.23;;;;;;;18.62;100.00;95973.88;1037474;28;20050;-68
2021/08/22 02:12:30;;;;;;;10.25;7.85;;;;;;;18.62;100.00;95969.25;1035800;28;20025;-67
2021/08/22 02:13:02;;;;;;;11.67;8.10;;;;;;;18.64;100.00;95968.94;1031531;28;20098;-67
2021/08/22 02:13:35;;;;;;;12.45;8.20;;;;;;;18.66;100.00;95972.13;1025984;28;20023;-67
2021/08/22 02:14:06;;;;;;;12.30;8.43;;;;;;;18.65;100.00;95974.03;1027711;28;20392;-65
2021/08/22 02:14:37;;;;;;;15.07;8.83;;;;;;;18.65;100.00;95971.34;1027705;28;20019;-66
2021/08/22 02:15:13;;;;;;;12.50;8.32;;;;;;;18.68;100.00;95970.72;1023783;29;20050;-68
2021/08/22 02:15:44;;;;;;;12.73;8.52;;;;;;;18.68;100.00;95970.72;1027799;28;20027;-68
2021/08/22 02:16:17;;;;;;;13.60;8.03;;;;;;;18.72;100.00;95980.91;1028329;28;20392;-68
2021/08/22 02:16:49;;;;;;;13.23;8.43;;;;;;;18.71;100.00;95971.97;1034539;28;20062;-68
2021/08/22 02:17:20;;;;;;;15.23;8.73;;;;;;;18.72;100.00;95981.69;1032363;28;20499;-68
2021/08/22 02:17:54;;;;;;;11.13;8.27;;;;;;;18.73;100.00;95972.44;1031797;28;20057;-67
2021/08/22 02:18:25;;;;;;;13.82;9.20;;;;;;;18.73;100.00;95977.84;1025476;28;20066;-68
2021/08/22 02:18:56;;;;;;;14.50;9.00;;;;;;;18.74;100.00;95974.06;1031757;28;20433;-67
2021/08/22 02:19:26;;;;;;;11.53;7.97;;;;;;;18.78;100.00;95977.69;1036523;28;20401;-67
2021/08/22 02:19:56;;;;;;;13.20;8.00;;;;;;;18.80;100.00;95974.69;1031663;28;20400;-67
2021/08/22 02:20:27;;;;;;;11.97;8.07;;;;;;;18.79;100.00;95978.50;1027836;28;20038;-69
2021/08/22 02:20:57;;;;;;;12.80;8.13;;;;;;;18.79;100.00;95984.72;1027532;28;20439;-67
2021/08/22 02:21:28;;;;;;;9.90;7.30;;;;;;;18.80;100.00;95980.88;1027772;28;20027;-68
2021/08/22 02:21:58;;;;;;;10.87;7.50;;;;;;;18.83;100.00;95977.50;1027775;28;20107;-67
2021/08/22 02:22:29;;;;;;;10.87;7.60;;;;;;;18.86;100.00;95981.50;1027693;28;20031;-67
2021/08/22 02:23:00;;;;;;;12.53;7.80;;;;;;;18.88;100.00;95979.25;1019874;29;20024;-68
2021/08/22 02:23:30;;;;;;;9.90;7.53;;;;;;;18.88;100.00;95981.97;1019999;28;20382;-68
2021/08/22 02:24:00;;;;;;;12.53;8.23;;;;;;;18.88;100.00;95982.75;1028056;28;20038;-68
2021/08/22 02:24:31;;;;;;;12.47;7.67;;;;;;;18.91;100.00;95984.03;1027782;28;20027;-68
2021/08/22 02:25:01;;;;;;;13.17;7.57;;;;;;;18.94;100.00;95978.00;1027766;28;20443;-68
2021/08/22 02:25:32;;;;;;;13.17;8.23;;;;;;;18.92;100.00;95982.91;1031637;28;20069;-68
2021/08/22 02:26:02;;;;;;;9.90;7.47;;;;;;;18.88;100.00;95990.88;1031822;28;20022;-68
2021/08/22 02:26:33;;;;;;;12.03;7.73;;;;;;;18.87;100.00;95985.78;1035853;28;20026;-68
2021/08/22 02:27:04;;;;;;;10.97;7.83;;;;;;;18.92;100.00;95988.34;1031607;28;20052;-68
2021/08/22 02:27:34;;;;;;;11.63;7.70;;;;;;;18.93;100.00;95987.22;1031880;28;20026;-68